sensor_id;sensor_type;location;lat;lon;timestamp;P1;durP1;ratioP1;P2;durP2;ratioP2
37321;SDS011;23697;48.684;9.032;2022-07-31T00:00:43;7.97;;;5.30;;
37321;SDS011;23697;48.684;9.032;2022-07-31T00:03:10;9.70;;;5.65;;
37321;SDS011;23697;48.684;9.032;2022-07-31T00:05:37;7.97;;;5.03;;
37321;SDS011;23697;48.684;9.032;2022-07-31T00:08:04;8.82;;;5.10;;
37321;SDS011;23697;48.684;9.032;2022-07-31T00:10:32;8.02;;;4.80;;
37321;SDS011;23697;48.684;9.032;2022-07-31T00:13:00;8.00;;;5.32;;
37321;SDS011;23697;48.684;9.032;2022-07-31T00:15:27;7.55;;;5.28;;
37321;SDS011;23697;48.684;9.032;2022-07-31T00:17:58;7.28;;;5.00;;
37321;SDS011;23697;48.684;9.032;2022-07-31T00:20:29;7.80;;;5.20;;
37321;SDS011;23697;48.684;9.032;2022-07-31T00:22:56;8.13;;;4.60;;
37321;SDS011;23697;48.684;9.032;2022-07-31T00:25:24;6.53;;;4.10;;
37321;SDS011;23697;48.684;9.032;2022-07-31T00:27:51;7.85;;;4.40;;
37321;SDS011;23697;48.684;9.032;2022-07-31T00:30:19;6.43;;;4.10;;
37321;SDS011;23697;48.684;9.032;2022-07-31T00:32:46;6.47;;;3.90;;
37321;SDS011;23697;48.684;9.032;2022-07-31T00:35:14;7.28;;;4.57;;
37321;SDS011;23697;48.684;9.032;2022-07-31T00:37:41;7.50;;;4.43;;
37321;SDS011;23697;48.684;9.032;2022-07-31T00:40:09;6.05;;;4.28;;
37321;SDS011;23697;48.684;9.032;2022-07-31T00:42:39;6.82;;;4.50;;
37321;SDS011;23697;48.684;9.032;2022-07-31T00:45:07;7.57;;;4.60;;
37321;SDS011;23697;48.684;9.032;2022-07-31T00:47:36;9.05;;;4.40;;
37321;SDS011;23697;48.684;9.032;2022-07-31T00:50:03;6.75;;;4.60;;
37321;SDS011;23697;48.684;9.032;2022-07-31T00:52:31;6.60;;;4.20;;
37321;SDS011;23697;48.684;9.032;2022-07-31T00:54:58;9.27;;;5.03;;
37321;SDS011;23697;48.684;9.032;2022-07-31T00:57:25;6.60;;;4.40;;
37321;SDS011;23697;48.684;9.032;2022-07-31T00:59:52;7.57;;;4.68;;
37321;SDS011;23697;48.684;9.032;2022-07-31T01:02:18;5.72;;;4.43;;
37321;SDS011;23697;48.684;9.032;2022-07-31T01:04:47;6.28;;;4.28;;
37321;SDS011;23697;48.684;9.032;2022-07-31T01:07:14;6.47;;;4.28;;
37321;SDS011;23697;48.684;9.032;2022-07-31T01:09:40;6.53;;;4.00;;
37321;SDS011;23697;48.684;9.032;2022-07-31T01:12:11;8.32;;;4.35;;
37321;SDS011;23697;48.684;9.032;2022-07-31T01:14:45;7.35;;;4.10;;
37321;SDS011;23697;48.684;9.032;2022-07-31T01:17:14;6.70;;;4.20;;
37321;SDS011;23697;48.684;9.032;2022-07-31T01:19:43;6.10;;;4.07;;
37321;SDS011;23697;48.684;9.032;2022-07-31T01:22:26;7.75;;;4.38;;
37321;SDS011;23697;48.684;9.032;2022-07-31T01:25:09;6.22;;;4.57;;
37321;SDS011;23697;48.684;9.032;2022-07-31T01:27:51;7.75;;;4.50;;
37321;SDS011;23697;48.684;9.032;2022-07-31T01:30:29;6.00;;;4.30;;
37321;SDS011;23697;48.684;9.032;2022-07-31T01:33:01;7.10;;;4.40;;
37321;SDS011;23697;48.684;9.032;2022-07-31T01:35:34;7.05;;;4.50;;
37321;SDS011;23697;48.684;9.032;2022-07-31T01:38:07;9.13;;;4.45;;
37321;SDS011;23697;48.684;9.032;2022-07-31T01:40:40;6.47;;;4.40;;
37321;SDS011;23697;48.684;9.032;2022-07-31T01:43:10;7.03;;;4.70;;
37321;SDS011;23697;48.684;9.032;2022-07-31T01:45:42;6.78;;;4.60;;
37321;SDS011;23697;48.684;9.032;2022-07-31T01:48:11;7.97;;;5.53;;
37321;SDS011;23697;48.684;9.032;2022-07-31T01:50:40;7.47;;;5.47;;
37321;SDS011;23697;48.684;9.032;2022-07-31T01:53:09;7.53;;;5.47;;
37321;SDS011;23697;48.684;9.032;2022-07-31T01:55:39;9.20;;;5.95;;
37321;SDS011;23697;48.684;9.032;2022-07-31T01:58:07;9.55;;;6.32;;
37321;SDS011;23697;48.684;9.032;2022-07-31T02:00:35;8.85;;;6.40;;
37321;SDS011;23697;48.684;9.032;2022-07-31T02:03:04;9.30;;;6.35;;
37321;SDS011;23697;48.684;9.032;2022-07-31T02:05:33;9.43;;;5.75;;
37321;SDS011;23697;48.684;9.032;2022-07-31T02:08:01;10.32;;;5.68;;
37321;SDS011;23697;48.684;9.032;2022-07-31T02:10:29;9.32;;;5.15;;
37321;SDS011;23697;48.684;9.032;2022-07-31T02:12:57;7.88;;;5.00;;
37321;SDS011;23697;48.684;9.032;2022-07-31T02:15:24;7.93;;;5.38;;
37321;SDS011;23697;48.684;9.032;2022-07-31T02:17:52;8.13;;;5.38;;
37321;SDS011;23697;48.684;9.032;2022-07-31T02:20:22;9.10;;;5.45;;
37321;SDS011;23697;48.684;9.032;2022-07-31T02:22:49;8.10;;;5.25;;
37321;SDS011;23697;48.684;9.032;2022-07-31T02:25:16;7.70;;;5.20;;
37321;SDS011;23697;48.684;9.032;2022-07-31T02:27:43;8.63;;;5.05;;
37321;SDS011;23697;48.684;9.032;2022-07-31T02:30:11;7.15;;;5.15;;
37321;SDS011;23697;48.684;9.032;2022-07-31T02:32:40;5.97;;;4.50;;
37321;SDS011;23697;48.684;9.032;2022-07-31T02:35:07;6.28;;;4.50;;
37321;SDS011;23697;48.684;9.032;2022-07-31T02:37:37;7.68;;;4.60;;
37321;SDS011;23697;48.684;9.032;2022-07-31T02:40:05;6.57;;;4.03;;
37321;SDS011;23697;48.684;9.032;2022-07-31T02:42:34;7.28;;;4.40;;
37321;SDS011;23697;48.684;9.032;2022-07-31T02:45:02;6.70;;;4.38;;
37321;SDS011;23697;48.684;9.032;2022-07-31T02:47:29;7.20;;;4.60;;
37321;SDS011;23697;48.684;9.032;2022-07-31T02:49:57;7.00;;;3.70;;
37321;SDS011;23697;48.684;9.032;2022-07-31T02:52:24;7.68;;;4.43;;
37321;SDS011;23697;48.684;9.032;2022-07-31T02:54:53;6.20;;;4.13;;
37321;SDS011;23697;48.684;9.032;2022-07-31T02:57:21;7.55;;;4.40;;
37321;SDS011;23697;48.684;9.032;2022-07-31T02:59:47;7.25;;;4.10;;
37321;SDS011;23697;48.684;9.032;2022-07-31T03:02:15;7.35;;;4.47;;
37321;SDS011;23697;48.684;9.032;2022-07-31T03:04:42;6.95;;;4.13;;
37321;SDS011;23697;48.684;9.032;2022-07-31T03:07:09;5.45;;;3.92;;
37321;SDS011;23697;48.684;9.032;2022-07-31T03:09:36;6.28;;;4.13;;
37321;SDS011;23697;48.684;9.032;2022-07-31T03:12:04;5.38;;;3.83;;
37321;SDS011;23697;48.684;9.032;2022-07-31T03:14:32;6.63;;;4.10;;
37321;SDS011;23697;48.684;9.032;2022-07-31T03:17:00;7.18;;;4.07;;
37321;SDS011;23697;48.684;9.032;2022-07-31T03:19:28;5.28;;;3.78;;
37321;SDS011;23697;48.684;9.032;2022-07-31T03:21:56;6.45;;;3.97;;
37321;SDS011;23697;48.684;9.032;2022-07-31T03:24:25;7.82;;;4.32;;
37321;SDS011;23697;48.684;9.032;2022-07-31T03:26:52;7.05;;;4.40;;
37321;SDS011;23697;48.684;9.032;2022-07-31T03:29:23;5.78;;;3.95;;
37321;SDS011;23697;48.684;9.032;2022-07-31T03:31:50;6.07;;;4.00;;
37321;SDS011;23697;48.684;9.032;2022-07-31T03:34:17;4.90;;;3.85;;
37321;SDS011;23697;48.684;9.032;2022-07-31T03:36:44;6.38;;;3.70;;
37321;SDS011;23697;48.684;9.032;2022-07-31T03:39:11;6.47;;;3.80;;
37321;SDS011;23697;48.684;9.032;2022-07-31T03:41:40;6.68;;;3.60;;
37321;SDS011;23697;48.684;9.032;2022-07-31T03:44:06;7.82;;;3.75;;
37321;SDS011;23697;48.684;9.032;2022-07-31T03:46:36;6.75;;;3.47;;
37321;SDS011;23697;48.684;9.032;2022-07-31T03:49:03;7.57;;;3.75;;
37321;SDS011;23697;48.684;9.032;2022-07-31T03:51:30;5.40;;;3.55;;
37321;SDS011;23697;48.684;9.032;2022-07-31T03:53:57;6.32;;;3.70;;
37321;SDS011;23697;48.684;9.032;2022-07-31T03:56:24;4.82;;;3.33;;
37321;SDS011;23697;48.684;9.032;2022-07-31T03:58:52;5.15;;;3.45;;
37321;SDS011;23697;48.684;9.032;2022-07-31T04:01:19;5.57;;;3.90;;
37321;SDS011;23697;48.684;9.032;2022-07-31T04:03:48;8.23;;;3.72;;
37321;SDS011;23697;48.684;9.032;2022-07-31T04:06:22;5.10;;;3.60;;
37321;SDS011;23697;48.684;9.032;2022-07-31T04:08:49;6.65;;;3.60;;
37321;SDS011;23697;48.684;9.032;2022-07-31T04:11:16;5.32;;;3.60;;
37321;SDS011;23697;48.684;9.032;2022-07-31T04:13:43;4.93;;;3.33;;
37321;SDS011;23697;48.684;9.032;2022-07-31T04:16:10;7.45;;;3.90;;
37321;SDS011;23697;48.684;9.032;2022-07-31T04:18:37;4.50;;;3.30;;
37321;SDS011;23697;48.684;9.032;2022-07-31T04:21:05;5.63;;;3.50;;
37321;SDS011;23697;48.684;9.032;2022-07-31T04:23:32;5.47;;;3.78;;
37321;SDS011;23697;48.684;9.032;2022-07-31T04:25:59;7.57;;;3.78;;
37321;SDS011;23697;48.684;9.032;2022-07-31T04:28:25;6.10;;;3.67;;
37321;SDS011;23697;48.684;9.032;2022-07-31T04:30:52;4.78;;;3.50;;
37321;SDS011;23697;48.684;9.032;2022-07-31T04:33:19;6.35;;;3.88;;
37321;SDS011;23697;48.684;9.032;2022-07-31T04:35:46;6.05;;;3.63;;
37321;SDS011;23697;48.684;9.032;2022-07-31T04:38:14;7.53;;;3.50;;
37321;SDS011;23697;48.684;9.032;2022-07-31T04:40:41;5.85;;;3.75;;
37321;SDS011;23697;48.684;9.032;2022-07-31T04:43:08;6.07;;;3.90;;
37321;SDS011;23697;48.684;9.032;2022-07-31T04:45:36;8.25;;;3.83;;
37321;SDS011;23697;48.684;9.032;2022-07-31T04:48:04;5.95;;;3.80;;
37321;SDS011;23697;48.684;9.032;2022-07-31T04:50:31;8.38;;;4.15;;
37321;SDS011;23697;48.684;9.032;2022-07-31T04:52:58;6.60;;;3.88;;
37321;SDS011;23697;48.684;9.032;2022-07-31T04:55:26;5.53;;;3.88;;
37321;SDS011;23697;48.684;9.032;2022-07-31T04:57:53;6.40;;;3.97;;
37321;SDS011;23697;48.684;9.032;2022-07-31T05:00:20;5.38;;;3.70;;
37321;SDS011;23697;48.684;9.032;2022-07-31T05:02:47;5.47;;;3.80;;
37321;SDS011;23697;48.684;9.032;2022-07-31T05:05:15;7.20;;;4.10;;
37321;SDS011;23697;48.684;9.032;2022-07-31T05:07:42;5.68;;;3.65;;
37321;SDS011;23697;48.684;9.032;2022-07-31T05:10:09;8.38;;;3.80;;
37321;SDS011;23697;48.684;9.032;2022-07-31T05:12:57;5.78;;;3.70;;
37321;SDS011;23697;48.684;9.032;2022-07-31T05:15:24;5.78;;;3.60;;
37321;SDS011;23697;48.684;9.032;2022-07-31T05:17:51;4.90;;;3.55;;
37321;SDS011;23697;48.684;9.032;2022-07-31T05:20:18;6.45;;;3.60;;
37321;SDS011;23697;48.684;9.032;2022-07-31T05:22:45;6.15;;;3.75;;
37321;SDS011;23697;48.684;9.032;2022-07-31T05:25:12;5.22;;;3.60;;
37321;SDS011;23697;48.684;9.032;2022-07-31T05:27:39;5.55;;;3.63;;
37321;SDS011;23697;48.684;9.032;2022-07-31T05:30:08;5.22;;;3.63;;
37321;SDS011;23697;48.684;9.032;2022-07-31T05:32:35;7.10;;;3.85;;
37321;SDS011;23697;48.684;9.032;2022-07-31T05:35:03;6.55;;;4.05;;
37321;SDS011;23697;48.684;9.032;2022-07-31T05:37:30;5.93;;;3.65;;
37321;SDS011;23697;48.684;9.032;2022-07-31T05:39:57;5.55;;;3.58;;
37321;SDS011;23697;48.684;9.032;2022-07-31T05:42:24;5.18;;;3.90;;
37321;SDS011;23697;48.684;9.032;2022-07-31T05:44:51;4.90;;;3.63;;
37321;SDS011;23697;48.684;9.032;2022-07-31T05:47:19;7.13;;;3.60;;
37321;SDS011;23697;48.684;9.032;2022-07-31T05:49:46;5.70;;;3.53;;
37321;SDS011;23697;48.684;9.032;2022-07-31T05:52:15;7.85;;;3.97;;
37321;SDS011;23697;48.684;9.032;2022-07-31T05:54:42;6.72;;;3.38;;
37321;SDS011;23697;48.684;9.032;2022-07-31T05:57:09;6.00;;;3.28;;
37321;SDS011;23697;48.684;9.032;2022-07-31T05:59:36;4.03;;;3.10;;
37321;SDS011;23697;48.684;9.032;2022-07-31T06:02:03;6.95;;;3.38;;
37321;SDS011;23697;48.684;9.032;2022-07-31T06:04:31;6.95;;;3.58;;
37321;SDS011;23697;48.684;9.032;2022-07-31T06:06:58;5.38;;;3.30;;
37321;SDS011;23697;48.684;9.032;2022-07-31T06:09:25;6.28;;;3.13;;
37321;SDS011;23697;48.684;9.032;2022-07-31T06:11:52;6.55;;;3.50;;
37321;SDS011;23697;48.684;9.032;2022-07-31T06:14:19;5.35;;;3.40;;
37321;SDS011;23697;48.684;9.032;2022-07-31T06:16:46;4.72;;;3.33;;
37321;SDS011;23697;48.684;9.032;2022-07-31T06:19:14;4.30;;;2.97;;
37321;SDS011;23697;48.684;9.032;2022-07-31T06:21:42;6.35;;;3.28;;
37321;SDS011;23697;48.684;9.032;2022-07-31T06:24:09;5.05;;;3.40;;
37321;SDS011;23697;48.684;9.032;2022-07-31T06:26:36;5.78;;;3.50;;
37321;SDS011;23697;48.684;9.032;2022-07-31T06:29:03;5.70;;;3.55;;
37321;SDS011;23697;48.684;9.032;2022-07-31T06:31:30;4.85;;;3.20;;
37321;SDS011;23697;48.684;9.032;2022-07-31T06:33:56;6.20;;;3.50;;
37321;SDS011;23697;48.684;9.032;2022-07-31T06:36:23;5.90;;;3.33;;
37321;SDS011;23697;48.684;9.032;2022-07-31T06:38:51;5.30;;;3.22;;
37321;SDS011;23697;48.684;9.032;2022-07-31T06:41:19;8.18;;;3.00;;
37321;SDS011;23697;48.684;9.032;2022-07-31T06:44:03;6.10;;;3.17;;
37321;SDS011;23697;48.684;9.032;2022-07-31T06:46:30;5.38;;;2.90;;
37321;SDS011;23697;48.684;9.032;2022-07-31T06:48:57;6.30;;;3.08;;
37321;SDS011;23697;48.684;9.032;2022-07-31T06:51:23;5.88;;;2.92;;
37321;SDS011;23697;48.684;9.032;2022-07-31T06:53:52;6.10;;;3.17;;
37321;SDS011;23697;48.684;9.032;2022-07-31T06:56:18;4.93;;;3.03;;
37321;SDS011;23697;48.684;9.032;2022-07-31T06:58:45;4.90;;;2.78;;
37321;SDS011;23697;48.684;9.032;2022-07-31T07:01:12;5.55;;;3.10;;
37321;SDS011;23697;48.684;9.032;2022-07-31T07:03:39;6.30;;;3.30;;
37321;SDS011;23697;48.684;9.032;2022-07-31T07:06:06;7.22;;;2.80;;
37321;SDS011;23697;48.684;9.032;2022-07-31T07:08:33;4.57;;;3.03;;
37321;SDS011;23697;48.684;9.032;2022-07-31T07:11:01;4.95;;;2.92;;
37321;SDS011;23697;48.684;9.032;2022-07-31T07:13:28;4.28;;;2.63;;
37321;SDS011;23697;48.684;9.032;2022-07-31T07:15:54;4.78;;;2.80;;
37321;SDS011;23697;48.684;9.032;2022-07-31T07:18:21;5.18;;;2.60;;
37321;SDS011;23697;48.684;9.032;2022-07-31T07:20:48;3.22;;;2.38;;
37321;SDS011;23697;48.684;9.032;2022-07-31T07:23:16;3.67;;;2.60;;
37321;SDS011;23697;48.684;9.032;2022-07-31T07:25:43;5.47;;;2.45;;
37321;SDS011;23697;48.684;9.032;2022-07-31T07:28:12;4.60;;;2.70;;
37321;SDS011;23697;48.684;9.032;2022-07-31T07:30:39;4.93;;;2.50;;
37321;SDS011;23697;48.684;9.032;2022-07-31T07:33:06;7.25;;;2.50;;
37321;SDS011;23697;48.684;9.032;2022-07-31T07:35:33;4.20;;;2.50;;
37321;SDS011;23697;48.684;9.032;2022-07-31T07:38:01;7.00;;;2.58;;
37321;SDS011;23697;48.684;9.032;2022-07-31T07:40:28;4.15;;;2.35;;
37321;SDS011;23697;48.684;9.032;2022-07-31T07:42:57;6.13;;;2.50;;
37321;SDS011;23697;48.684;9.032;2022-07-31T07:45:25;3.75;;;2.40;;
37321;SDS011;23697;48.684;9.032;2022-07-31T07:47:52;4.70;;;2.33;;
37321;SDS011;23697;48.684;9.032;2022-07-31T07:50:19;3.47;;;2.50;;
37321;SDS011;23697;48.684;9.032;2022-07-31T07:52:46;4.13;;;2.40;;
37321;SDS011;23697;48.684;9.032;2022-07-31T07:55:13;3.85;;;2.50;;
37321;SDS011;23697;48.684;9.032;2022-07-31T07:57:42;3.65;;;2.20;;
37321;SDS011;23697;48.684;9.032;2022-07-31T08:00:10;3.92;;;2.20;;
37321;SDS011;23697;48.684;9.032;2022-07-31T08:02:39;4.03;;;2.35;;
37321;SDS011;23697;48.684;9.032;2022-07-31T08:05:06;6.38;;;2.60;;
37321;SDS011;23697;48.684;9.032;2022-07-31T08:07:34;3.78;;;2.30;;
37321;SDS011;23697;48.684;9.032;2022-07-31T08:10:02;3.60;;;2.40;;
37321;SDS011;23697;48.684;9.032;2022-07-31T08:12:32;3.30;;;2.20;;
37321;SDS011;23697;48.684;9.032;2022-07-31T08:14:59;5.47;;;2.38;;
37321;SDS011;23697;48.684;9.032;2022-07-31T08:17:26;4.88;;;2.30;;
37321;SDS011;23697;48.684;9.032;2022-07-31T08:19:54;3.58;;;2.28;;
37321;SDS011;23697;48.684;9.032;2022-07-31T08:22:21;6.13;;;2.20;;
37321;SDS011;23697;48.684;9.032;2022-07-31T08:24:48;4.55;;;1.92;;
37321;SDS011;23697;48.684;9.032;2022-07-31T08:27:17;3.67;;;2.30;;
37321;SDS011;23697;48.684;9.032;2022-07-31T08:29:52;3.65;;;2.20;;
37321;SDS011;23697;48.684;9.032;2022-07-31T08:32:23;3.78;;;2.20;;
37321;SDS011;23697;48.684;9.032;2022-07-31T08:34:50;3.13;;;2.08;;
37321;SDS011;23697;48.684;9.032;2022-07-31T08:37:19;4.22;;;2.03;;
37321;SDS011;23697;48.684;9.032;2022-07-31T08:39:47;2.65;;;1.80;;
37321;SDS011;23697;48.684;9.032;2022-07-31T08:42:15;3.08;;;2.08;;
37321;SDS011;23697;48.684;9.032;2022-07-31T08:44:44;3.65;;;1.90;;
37321;SDS011;23697;48.684;9.032;2022-07-31T08:47:12;4.57;;;2.03;;
37321;SDS011;23697;48.684;9.032;2022-07-31T08:49:40;3.08;;;1.88;;
37321;SDS011;23697;48.684;9.032;2022-07-31T08:52:10;3.45;;;2.10;;
37321;SDS011;23697;48.684;9.032;2022-07-31T08:54:39;2.78;;;1.90;;
37321;SDS011;23697;48.684;9.032;2022-07-31T08:59:35;3.58;;;2.08;;
37321;SDS011;23697;48.684;9.032;2022-07-31T09:02:03;2.83;;;2.00;;
37321;SDS011;23697;48.684;9.032;2022-07-31T09:04:30;5.53;;;1.98;;
37321;SDS011;23697;48.684;9.032;2022-07-31T09:06:58;4.97;;;1.90;;
37321;SDS011;23697;48.684;9.032;2022-07-31T09:09:25;6.60;;;1.90;;
37321;SDS011;23697;48.684;9.032;2022-07-31T09:11:54;3.22;;;1.80;;
37321;SDS011;23697;48.684;9.032;2022-07-31T09:14:25;4.10;;;2.10;;
37321;SDS011;23697;48.684;9.032;2022-07-31T09:16:53;3.28;;;1.90;;
37321;SDS011;23697;48.684;9.032;2022-07-31T09:19:20;4.25;;;1.90;;
37321;SDS011;23697;48.684;9.032;2022-07-31T09:21:49;4.35;;;1.90;;
37321;SDS011;23697;48.684;9.032;2022-07-31T09:24:26;3.97;;;1.88;;
37321;SDS011;23697;48.684;9.032;2022-07-31T09:27:01;5.55;;;1.95;;
37321;SDS011;23697;48.684;9.032;2022-07-31T09:29:33;4.30;;;2.10;;
37321;SDS011;23697;48.684;9.032;2022-07-31T09:32:08;3.17;;;1.98;;
37321;SDS011;23697;48.684;9.032;2022-07-31T09:34:35;3.13;;;1.70;;
37321;SDS011;23697;48.684;9.032;2022-07-31T09:37:10;3.55;;;2.00;;
37321;SDS011;23697;48.684;9.032;2022-07-31T09:39:38;5.22;;;1.98;;
37321;SDS011;23697;48.684;9.032;2022-07-31T09:42:07;4.78;;;2.00;;
37321;SDS011;23697;48.684;9.032;2022-07-31T09:44:35;3.67;;;2.13;;
37321;SDS011;23697;48.684;9.032;2022-07-31T09:47:04;3.55;;;2.00;;
37321;SDS011;23697;48.684;9.032;2022-07-31T09:49:32;3.38;;;1.90;;
37321;SDS011;23697;48.684;9.032;2022-07-31T09:51:59;4.18;;;1.98;;
37321;SDS011;23697;48.684;9.032;2022-07-31T09:54:27;4.43;;;2.10;;
37321;SDS011;23697;48.684;9.032;2022-07-31T09:56:55;4.13;;;1.80;;
37321;SDS011;23697;48.684;9.032;2022-07-31T09:59:24;3.17;;;1.83;;
37321;SDS011;23697;48.684;9.032;2022-07-31T10:01:51;4.30;;;1.92;;
37321;SDS011;23697;48.684;9.032;2022-07-31T10:04:20;3.50;;;1.70;;
37321;SDS011;23697;48.684;9.032;2022-07-31T10:06:48;4.45;;;1.90;;
37321;SDS011;23697;48.684;9.032;2022-07-31T10:09:16;4.95;;;1.95;;
37321;SDS011;23697;48.684;9.032;2022-07-31T10:11:45;5.15;;;2.30;;
37321;SDS011;23697;48.684;9.032;2022-07-31T10:14:15;4.28;;;2.00;;
37321;SDS011;23697;48.684;9.032;2022-07-31T10:16:47;5.10;;;2.10;;
37321;SDS011;23697;48.684;9.032;2022-07-31T10:19:17;4.97;;;1.83;;
37321;SDS011;23697;48.684;9.032;2022-07-31T10:21:48;3.63;;;2.00;;
37321;SDS011;23697;48.684;9.032;2022-07-31T10:24:19;3.63;;;1.80;;
37321;SDS011;23697;48.684;9.032;2022-07-31T10:26:49;4.78;;;1.85;;
37321;SDS011;23697;48.684;9.032;2022-07-31T10:29:17;4.35;;;1.80;;
37321;SDS011;23697;48.684;9.032;2022-07-31T10:31:45;3.88;;;1.90;;
37321;SDS011;23697;48.684;9.032;2022-07-31T10:34:13;4.07;;;2.03;;
37321;SDS011;23697;48.684;9.032;2022-07-31T10:36:41;4.83;;;1.80;;
37321;SDS011;23697;48.684;9.032;2022-07-31T10:39:13;3.75;;;1.95;;
37321;SDS011;23697;48.684;9.032;2022-07-31T10:41:46;3.40;;;1.90;;
37321;SDS011;23697;48.684;9.032;2022-07-31T10:44:22;5.75;;;2.00;;
37321;SDS011;23697;48.684;9.032;2022-07-31T10:46:56;4.03;;;1.80;;
37321;SDS011;23697;48.684;9.032;2022-07-31T10:52:25;2.85;;;2.05;;
37321;SDS011;23697;48.684;9.032;2022-07-31T10:54:52;2.75;;;2.00;;
37321;SDS011;23697;48.684;9.032;2022-07-31T10:57:22;3.08;;;1.90;;
37321;SDS011;23697;48.684;9.032;2022-07-31T10:59:50;3.50;;;1.90;;
37321;SDS011;23697;48.684;9.032;2022-07-31T11:02:27;5.35;;;2.00;;
37321;SDS011;23697;48.684;9.032;2022-07-31T11:05:06;5.00;;;1.90;;
37321;SDS011;23697;48.684;9.032;2022-07-31T11:07:34;5.82;;;1.83;;
37321;SDS011;23697;48.684;9.032;2022-07-31T11:10:10;6.32;;;2.53;;
37321;SDS011;23697;48.684;9.032;2022-07-31T11:12:42;5.28;;;2.03;;
37321;SDS011;23697;48.684;9.032;2022-07-31T11:15:17;4.28;;;1.90;;
37321;SDS011;23697;48.684;9.032;2022-07-31T11:17:45;4.55;;;1.83;;
37321;SDS011;23697;48.684;9.032;2022-07-31T11:20:21;4.38;;;1.95;;
37321;SDS011;23697;48.684;9.032;2022-07-31T11:22:57;4.60;;;1.90;;
37321;SDS011;23697;48.684;9.032;2022-07-31T11:25:26;3.47;;;2.00;;
37321;SDS011;23697;48.684;9.032;2022-07-31T11:28:08;3.95;;;2.00;;
37321;SDS011;23697;48.684;9.032;2022-07-31T11:30:45;3.10;;;1.88;;
37321;SDS011;23697;48.684;9.032;2022-07-31T11:33:26;4.03;;;1.90;;
37321;SDS011;23697;48.684;9.032;2022-07-31T11:36:04;6.15;;;2.00;;
37321;SDS011;23697;48.684;9.032;2022-07-31T11:38:33;3.22;;;2.00;;
37321;SDS011;23697;48.684;9.032;2022-07-31T11:41:00;2.88;;;1.75;;
37321;SDS011;23697;48.684;9.032;2022-07-31T11:43:27;7.03;;;2.00;;
37321;SDS011;23697;48.684;9.032;2022-07-31T11:45:54;3.72;;;1.77;;
37321;SDS011;23697;48.684;9.032;2022-07-31T11:48:22;4.97;;;2.00;;
37321;SDS011;23697;48.684;9.032;2022-07-31T11:50:50;4.68;;;2.10;;
37321;SDS011;23697;48.684;9.032;2022-07-31T11:53:19;4.97;;;1.90;;
37321;SDS011;23697;48.684;9.032;2022-07-31T11:55:47;3.78;;;1.90;;
37321;SDS011;23697;48.684;9.032;2022-07-31T11:58:15;3.30;;;1.75;;
37321;SDS011;23697;48.684;9.032;2022-07-31T12:00:47;3.88;;;1.90;;
37321;SDS011;23697;48.684;9.032;2022-07-31T12:03:15;5.03;;;2.10;;
37321;SDS011;23697;48.684;9.032;2022-07-31T12:05:43;4.50;;;1.98;;
37321;SDS011;23697;48.684;9.032;2022-07-31T12:08:10;3.53;;;2.08;;
37321;SDS011;23697;48.684;9.032;2022-07-31T12:10:39;5.28;;;2.22;;
37321;SDS011;23697;48.684;9.032;2022-07-31T12:13:10;4.05;;;1.80;;
37321;SDS011;23697;48.684;9.032;2022-07-31T12:15:38;3.47;;;2.00;;
37321;SDS011;23697;48.684;9.032;2022-07-31T12:18:05;3.25;;;2.00;;
37321;SDS011;23697;48.684;9.032;2022-07-31T12:20:32;5.75;;;2.00;;
37321;SDS011;23697;48.684;9.032;2022-07-31T12:23:00;4.32;;;1.90;;
37321;SDS011;23697;48.684;9.032;2022-07-31T12:25:37;3.58;;;2.10;;
37321;SDS011;23697;48.684;9.032;2022-07-31T12:28:07;5.63;;;2.00;;
37321;SDS011;23697;48.684;9.032;2022-07-31T12:30:35;4.10;;;2.00;;
37321;SDS011;23697;48.684;9.032;2022-07-31T12:33:06;3.80;;;2.03;;
37321;SDS011;23697;48.684;9.032;2022-07-31T12:35:34;4.95;;;1.90;;
37321;SDS011;23697;48.684;9.032;2022-07-31T12:38:02;4.40;;;1.90;;
37321;SDS011;23697;48.684;9.032;2022-07-31T12:40:29;4.43;;;2.10;;
37321;SDS011;23697;48.684;9.032;2022-07-31T12:42:58;3.50;;;1.95;;
37321;SDS011;23697;48.684;9.032;2022-07-31T12:45:29;3.92;;;2.10;;
37321;SDS011;23697;48.684;9.032;2022-07-31T12:47:57;3.88;;;2.00;;
37321;SDS011;23697;48.684;9.032;2022-07-31T12:50:25;3.97;;;1.98;;
37321;SDS011;23697;48.684;9.032;2022-07-31T12:52:53;3.05;;;1.92;;
37321;SDS011;23697;48.684;9.032;2022-07-31T12:55:23;5.25;;;2.00;;
37321;SDS011;23697;48.684;9.032;2022-07-31T12:57:51;2.92;;;1.90;;
37321;SDS011;23697;48.684;9.032;2022-07-31T13:00:19;3.35;;;2.10;;
37321;SDS011;23697;48.684;9.032;2022-07-31T13:02:47;3.58;;;1.80;;
37321;SDS011;23697;48.684;9.032;2022-07-31T13:05:14;2.67;;;1.85;;
37321;SDS011;23697;48.684;9.032;2022-07-31T13:07:41;5.90;;;2.08;;
37321;SDS011;23697;48.684;9.032;2022-07-31T13:10:08;4.18;;;2.08;;
37321;SDS011;23697;48.684;9.032;2022-07-31T13:12:35;3.65;;;1.80;;
37321;SDS011;23697;48.684;9.032;2022-07-31T13:15:02;4.28;;;1.70;;
37321;SDS011;23697;48.684;9.032;2022-07-31T13:17:31;5.50;;;1.90;;
37321;SDS011;23697;48.684;9.032;2022-07-31T13:19:58;3.88;;;1.95;;
37321;SDS011;23697;48.684;9.032;2022-07-31T13:22:25;2.92;;;1.80;;
37321;SDS011;23697;48.684;9.032;2022-07-31T13:24:52;3.25;;;1.80;;
37321;SDS011;23697;48.684;9.032;2022-07-31T13:27:19;3.53;;;1.73;;
37321;SDS011;23697;48.684;9.032;2022-07-31T13:29:46;2.97;;;1.80;;
37321;SDS011;23697;48.684;9.032;2022-07-31T13:32:13;5.30;;;2.08;;
37321;SDS011;23697;48.684;9.032;2022-07-31T13:34:42;3.75;;;1.80;;
37321;SDS011;23697;48.684;9.032;2022-07-31T13:37:09;2.92;;;1.67;;
37321;SDS011;23697;48.684;9.032;2022-07-31T13:39:35;3.08;;;1.73;;
37321;SDS011;23697;48.684;9.032;2022-07-31T13:42:02;3.38;;;1.83;;
37321;SDS011;23697;48.684;9.032;2022-07-31T13:44:29;2.85;;;1.80;;
37321;SDS011;23697;48.684;9.032;2022-07-31T13:46:57;3.50;;;1.60;;
37321;SDS011;23697;48.684;9.032;2022-07-31T13:49:24;4.88;;;1.67;;
37321;SDS011;23697;48.684;9.032;2022-07-31T13:51:57;2.88;;;1.70;;
37321;SDS011;23697;48.684;9.032;2022-07-31T13:54:24;3.13;;;1.77;;
37321;SDS011;23697;48.684;9.032;2022-07-31T13:56:51;5.13;;;1.90;;
37321;SDS011;23697;48.684;9.032;2022-07-31T13:59:18;3.30;;;1.90;;
37321;SDS011;23697;48.684;9.032;2022-07-31T14:01:45;3.88;;;1.75;;
37321;SDS011;23697;48.684;9.032;2022-07-31T14:04:15;6.07;;;1.83;;
37321;SDS011;23697;48.684;9.032;2022-07-31T14:06:43;3.75;;;1.75;;
37321;SDS011;23697;48.684;9.032;2022-07-31T14:09:12;3.63;;;1.70;;
37321;SDS011;23697;48.684;9.032;2022-07-31T14:11:38;4.65;;;1.80;;
37321;SDS011;23697;48.684;9.032;2022-07-31T14:14:05;2.58;;;1.70;;
37321;SDS011;23697;48.684;9.032;2022-07-31T14:16:32;4.75;;;2.00;;
37321;SDS011;23697;48.684;9.032;2022-07-31T14:18:59;3.22;;;1.83;;
37321;SDS011;23697;48.684;9.032;2022-07-31T14:21:26;3.97;;;1.60;;
37321;SDS011;23697;48.684;9.032;2022-07-31T14:23:53;3.80;;;1.77;;
37321;SDS011;23697;48.684;9.032;2022-07-31T14:26:21;4.07;;;1.92;;
37321;SDS011;23697;48.684;9.032;2022-07-31T14:28:48;1.65;;;1.52;;
37321;SDS011;23697;48.684;9.032;2022-07-31T14:31:15;3.97;;;2.00;;
37321;SDS011;23697;48.684;9.032;2022-07-31T14:33:42;2.25;;;1.73;;
37321;SDS011;23697;48.684;9.032;2022-07-31T14:36:08;3.20;;;1.83;;
37321;SDS011;23697;48.684;9.032;2022-07-31T14:38:35;4.00;;;1.98;;
37321;SDS011;23697;48.684;9.032;2022-07-31T14:41:02;2.78;;;1.70;;
37321;SDS011;23697;48.684;9.032;2022-07-31T14:43:32;4.20;;;1.80;;
37321;SDS011;23697;48.684;9.032;2022-07-31T14:45:59;3.08;;;1.90;;
37321;SDS011;23697;48.684;9.032;2022-07-31T14:48:26;4.00;;;2.00;;
37321;SDS011;23697;48.684;9.032;2022-07-31T14:50:53;2.17;;;1.80;;
37321;SDS011;23697;48.684;9.032;2022-07-31T14:53:20;4.75;;;1.77;;
37321;SDS011;23697;48.684;9.032;2022-07-31T14:55:47;3.25;;;1.80;;
37321;SDS011;23697;48.684;9.032;2022-07-31T14:58:13;2.70;;;1.90;;
37321;SDS011;23697;48.684;9.032;2022-07-31T15:00:42;4.43;;;1.70;;